Time;durP1;ratioP1;P1;durP2;ratioP2;P2;SDS_P1;SDS_P2;PMS_P1;PMS_P2;Temp;Humidity;BMP_temperature;BMP_pressure;BME280_temperature;BME280_humidity;BME280_pressure;Samples;Min_cycle;Max_cycle;Signal;HPM_P1;HPM_P2
2023/02/25 00:02:09;;;;;;;0.50;0.40;;;3.60;99.90;;;;;;5063686;28;20198;-77
2023/02/25 00:04:39;;;;;;;0.50;0.40;;;3.60;99.90;;;;;;5061158;28;20218;-78
2023/02/25 00:07:06;;;;;;;1.98;1.77;;;3.60;99.90;;;;;;5063099;28;20226;-78
2023/02/25 00:09:33;;;;;;;0.50;0.40;;;3.60;99.90;;;;;;5064382;28;20237;-79
2023/02/25 00:12:00;;;;;;;0.50;0.40;;;3.60;99.90;;;;;;5064224;28;20218;-78
2023/02/25 00:14:27;;;;;;;0.50;0.40;;;3.60;99.90;;;;;;5064463;28;20210;-78
2023/02/25 00:16:54;;;;;;;0.50;0.40;;;3.70;99.90;;;;;;5064909;28;20217;-78
2023/02/25 00:19:21;;;;;;;12.80;1.15;;;3.70;99.90;;;;;;5065280;28;20214;-79
2023/02/25 00:21:50;;;;;;;0.50;0.50;;;3.70;99.90;;;;;;5065679;28;20195;-79
2023/02/25 00:24:16;;;;;;;0.50;0.40;;;3.80;99.90;;;;;;5064461;28;20274;-77
2023/02/25 00:26:44;;;;;;;0.50;0.40;;;3.80;99.90;;;;;;5063764;28;20268;-78
2023/02/25 00:29:10;;;;;;;3.30;0.82;;;3.70;99.90;;;;;;5061609;28;20194;-78
2023/02/25 00:31:37;;;;;;;0.50;0.40;;;3.70;99.90;;;;;;5060277;28;20713;-78
2023/02/25 00:34:04;;;;;;;0.50;0.40;;;3.80;99.90;;;;;;5053787;28;20211;-78
2023/02/25 00:36:31;;;;;;;0.50;0.40;;;3.80;99.90;;;;;;5054344;28;20708;-78
2023/02/25 00:38:59;;;;;;;0.50;0.43;;;3.80;99.90;;;;;;5053171;28;20187;-77
2023/02/25 00:41:29;;;;;;;1.95;1.80;;;3.70;99.90;;;;;;5053927;28;20201;-79
2023/02/25 00:43:58;;;;;;;0.50;0.40;;;3.80;99.90;;;;;;5054915;28;20268;-77
2023/02/25 00:46:25;;;;;;;0.50;0.40;;;3.70;99.90;;;;;;5055108;28;20249;-78
2023/02/25 00:48:52;;;;;;;0.90;0.70;;;3.70;99.90;;;;;;5055241;28;20187;-78
2023/02/25 00:51:21;;;;;;;9.57;0.68;;;3.70;99.90;;;;;;5055660;28;20736;-78
2023/02/25 00:53:48;;;;;;;0.75;0.75;;;3.70;99.90;;;;;;5054860;28;20685;-78
2023/02/25 00:56:18;;;;;;;1.02;1.02;;;3.70;99.90;;;;;;5054727;28;20191;-78
2023/02/25 00:58:47;;;;;;;0.50;0.40;;;3.70;99.90;;;;;;5053983;28;20217;-77
2023/02/25 01:01:19;;;;;;;3.25;1.25;;;3.70;99.90;;;;;;5053471;28;20212;-78
2023/02/25 01:03:46;;;;;;;0.50;0.40;;;3.70;99.90;;;;;;5053837;28;20709;-77
2023/02/25 01:06:13;;;;;;;2.35;2.15;;;3.60;99.90;;;;;;5057010;28;20282;-79
2023/02/25 01:08:40;;;;;;;21.55;1.38;;;3.60;99.90;;;;;;5061602;28;20193;-78
2023/02/25 01:11:12;;;;;;;0.70;0.70;;;3.60;99.90;;;;;;5060849;28;20278;-78
2023/02/25 01:13:40;;;;;;;0.50;0.50;;;3.60;99.90;;;;;;5060468;28;20249;-78
2023/02/25 01:16:12;;;;;;;1.48;1.38;;;3.60;99.90;;;;;;5058800;28;20250;-78
2023/02/25 01:18:39;;;;;;;1.73;1.33;;;3.50;99.90;;;;;;5057514;28;20258;-78
2023/02/25 01:21:06;;;;;;;0.50;0.40;;;3.50;99.90;;;;;;5060980;28;20194;-78
2023/02/25 01:23:33;;;;;;;0.50;0.50;;;3.50;99.90;;;;;;5060290;28;20712;-78
2023/02/25 01:26:02;;;;;;;0.50;0.50;;;3.50;99.90;;;;;;5059895;28;20302;-78
2023/02/25 01:28:29;;;;;;;0.50;0.40;;;3.40;99.90;;;;;;5060417;28;20258;-78
2023/02/25 01:30:57;;;;;;;0.70;0.70;;;3.30;99.90;;;;;;5061666;28;20222;-78
2023/02/25 01:33:24;;;;;;;1.25;1.25;;;3.30;99.90;;;;;;5062991;28;20217;-77
2023/02/25 01:35:51;;;;;;;2.35;1.10;;;3.40;99.90;;;;;;5065009;28;20222;-78
2023/02/25 01:38:18;;;;;;;0.50;0.40;;;3.40;99.90;;;;;;5064298;28;20233;-78
2023/02/25 01:40:45;;;;;;;0.50;0.40;;;3.40;99.90;;;;;;5065608;28;20233;-78
2023/02/25 01:43:15;;;;;;;0.50;0.40;;;3.40;99.90;;;;;;5064508;28;20725;-78
2023/02/25 01:45:44;;;;;;;0.50;0.47;;;3.40;99.90;;;;;;5065756;28;20226;-77
2023/02/25 01:48:16;;;;;;;0.50;0.40;;;3.40;99.90;;;;;;5066105;28;20206;-78
2023/02/25 01:50:50;;;;;;;0.50;0.40;;;3.50;99.90;;;;;;5065613;28;20214;-79
2023/02/25 01:53:22;;;;;;;0.50;0.40;;;3.50;99.90;;;;;;5057558;28;20302;-78
2023/02/25 01:55:50;;;;;;;0.50;0.40;;;3.50;99.90;;;;;;5065747;28;20195;-78
2023/02/25 01:58:18;;;;;;;0.50;0.40;;;3.60;99.90;;;;;;5062615;28;20182;-79
2023/02/25 02:00:45;;;;;;;0.65;0.65;;;3.60;99.90;;;;;;5065198;28;20218;-79
2023/02/25 02:03:15;;;;;;;0.98;0.80;;;3.60;99.90;;;;;;5064580;28;20301;-78
2023/02/25 02:06:03;;;;;;;0.50;0.40;;;3.60;99.90;;;;;;5066801;28;20201;-78
2023/02/25 02:08:31;;;;;;;1.17;0.63;;;3.60;99.90;;;;;;5062496;28;20240;-77
2023/02/25 02:10:59;;;;;;;0.50;0.40;;;3.60;99.90;;;;;;5068554;28;20191;-78
2023/02/25 02:13:26;;;;;;;1.45;1.35;;;3.70;99.90;;;;;;5067881;28;20241;-78
2023/02/25 02:16:14;;;;;;;2.47;2.28;;;3.70;99.90;;;;;;5068085;28;20250;-78
2023/02/25 02:18:49;;;;;;;0.50;0.40;;;3.70;99.90;;;;;;5069007;28;20226;-78
2023/02/25 02:21:33;;;;;;;1.30;1.20;;;3.70;99.90;;;;;;5068249;28;20202;-78
2023/02/25 02:24:27;;;;;;;0.50;0.50;;;3.70;99.90;;;;;;5067869;28;20243;-78
2023/02/25 02:27:01;;;;;;;1.10;1.05;;;3.70;99.90;;;;;;5063130;28;20245;-79
2023/02/25 02:30:09;;;;;;;0.80;0.80;;;3.70;99.90;;;;;;5063601;28;20254;-78
2023/02/25 02:32:43;;;;;;;0.50;0.40;;;3.70;99.90;;;;;;5057000;28;20195;-79
2023/02/25 02:35:18;;;;;;;0.50;0.40;;;3.70;99.90;;;;;;5061198;28;20223;-79
2023/02/25 02:37:55;;;;;;;0.65;0.65;;;3.70;99.90;;;;;;5062442;28;20190;-79
2023/02/25 02:40:45;;;;;;;13.77;3.20;;;3.70;99.90;;;;;;5049659;28;20222;-78
2023/02/25 02:43:23;;;;;;;4.20;2.25;;;3.70;99.90;;;;;;5058337;28;20589;-79
2023/02/25 02:45:56;;;;;;;2.60;1.48;;;3.70;99.90;;;;;;5058442;28;20194;-78
2023/02/25 02:48:30;;;;;;;0.50;0.40;;;3.60;99.90;;;;;;5042421;28;20581;-78
2023/02/25 02:51:00;;;;;;;1.83;0.80;;;3.60;99.90;;;;;;5057020;28;20197;-78
2023/02/25 02:53:32;;;;;;;0.50;0.40;;;3.70;99.90;;;;;;5055874;28;20711;-78
2023/02/25 02:56:02;;;;;;;1.70;1.58;;;3.70;99.90;;;;;;5055728;28;20190;-78
2023/02/25 02:58:32;;;;;;;0.50;0.40;;;3.70;99.90;;;;;;5057271;28;20194;-77
2023/02/25 03:01:04;;;;;;;0.50;0.40;;;3.60;99.90;;;;;;5060700;28;20210;-78
2023/02/25 03:03:38;;;;;;;1.38;1.05;;;3.60;99.90;;;;;;5060488;28;20218;-78
2023/02/25 03:06:09;;;;;;;0.50;0.40;;;3.60;99.90;;;;;;5059724;28;20236;-78
2023/02/25 03:08:43;;;;;;;0.50;0.40;;;3.60;99.90;;;;;;5059867;28;20264;-78
2023/02/25 03:11:10;;;;;;;6.90;1.50;;;3.60;99.90;;;;;;5059815;28;20202;-78
2023/02/25 03:13:37;;;;;;;0.57;0.57;;;3.60;99.90;;;;;;5060301;28;20693;-78
2023/02/25 03:16:08;;;;;;;0.50;0.40;;;3.60;99.90;;;;;;5059851;28;20221;-77
2023/02/25 03:18:42;;;;;;;0.50;0.40;;;3.60;99.90;;;;;;5059645;28;20221;-78
2023/02/25 03:21:15;;;;;;;1.13;1.05;;;3.60;99.90;;;;;;5059442;28;20749;-78
2023/02/25 03:23:45;;;;;;;0.50;0.40;;;3.50;99.90;;;;;;5060332;28;20578;-77
2023/02/25 03:26:22;;;;;;;0.80;0.80;;;3.50;99.90;;;;;;5059738;28;20234;-78
2023/02/25 03:28:50;;;;;;;0.50;0.40;;;3.50;99.90;;;;;;5059908;28;20210;-78
2023/02/25 03:31:22;;;;;;;2.70;1.25;;;3.50;99.90;;;;;;5059779;28;20213;-77
2023/02/25 03:33:54;;;;;;;1.63;1.15;;;3.50;99.90;;;;;;5059863;28;20217;-78
2023/02/25 03:36:27;;;;;;;0.50;0.40;;;3.60;99.90;;;;;;5060220;28;20195;-78
2023/02/25 03:38:57;;;;;;;0.50;0.40;;;3.60;99.90;;;;;;5060623;28;20193;-78
2023/02/25 03:41:34;;;;;;;0.68;0.63;;;3.60;99.90;;;;;;5059302;28;20200;-77
2023/02/25 03:44:04;;;;;;;2.67;2.58;;;3.60;99.90;;;;;;5059649;28;20218;-78
2023/02/25 03:46:33;;;;;;;0.50;0.40;;;3.60;99.90;;;;;;5059503;28;20194;-77
2023/02/25 03:49:03;;;;;;;0.50;0.40;;;3.60;99.90;;;;;;5059859;28;20207;-78
2023/02/25 03:51:33;;;;;;;0.50;0.40;;;3.60;99.90;;;;;;5057602;28;20277;-77
2023/02/25 03:54:01;;;;;;;0.50;0.40;;;3.60;99.90;;;;;;5057055;28;20214;-78
2023/02/25 03:56:28;;;;;;;0.50;0.40;;;3.60;99.90;;;;;;5053945;28;20289;-77
2023/02/25 03:58:55;;;;;;;0.50;0.43;;;3.60;99.90;;;;;;5053430;28;20195;-77
2023/02/25 04:01:27;;;;;;;0.50;0.40;;;3.60;99.90;;;;;;5054025;28;20277;-77
2023/02/25 04:03:54;;;;;;;0.50;0.40;;;3.60;99.90;;;;;;5054138;28;20219;-74
2023/02/25 04:06:24;;;;;;;0.50;0.40;;;3.60;99.90;;;;;;5053951;28;20281;-78
2023/02/25 04:08:51;;;;;;;0.50;0.40;;;3.60;99.90;;;;;;5054329;28;20638;-78
2023/02/25 04:11:18;;;;;;;0.50;0.40;;;3.60;99.90;;;;;;5054693;28;20195;-78
2023/02/25 04:13:45;;;;;;;30.52;1.25;;;3.60;99.90;;;;;;5054709;28;20211;-78
2023/02/25 04:16:12;;;;;;;0.50;0.40;;;3.60;99.90;;;;;;5054037;28;20198;-78
2023/02/25 04:18:39;;;;;;;1.25;1.05;;;3.60;99.90;;;;;;5054374;28;20187;-78
2023/02/25 04:21:07;;;;;;;0.50;0.40;;;3.60;99.90;;;;;;5054067;28;20680;-77
2023/02/25 04:23:35;;;;;;;1.90;0.77;;;3.60;99.90;;;;;;5053879;28;20217;-78
2023/02/25 04:26:02;;;;;;;0.50;0.40;;;3.60;99.90;;;;;;5053879;28;20202;-77
2023/02/25 04:28:29;;;;;;;1.95;0.95;;;3.60;99.90;;;;;;5054615;28;20210;-78
2023/02/25 04:30:56;;;;;;;0.73;0.73;;;3.60;99.90;;;;;;5054656;28;20202;-78
2023/02/25 04:33:23;;;;;;;0.50;0.40;;;3.60;99.90;;;;;;5055029;28;20217;-76
2023/02/25 04:35:50;;;;;;;0.50;0.40;;;3.60;99.90;;;;;;5054838;28;20193;-78
2023/02/25 04:38:17;;;;;;;0.50;0.40;;;3.60;99.90;;;;;;5054755;28;20492;-78
2023/02/25 04:40:45;;;;;;;0.50;0.40;;;3.70;99.90;;;;;;5054875;28;20277;-78
2023/02/25 04:43:12;;;;;;;0.50;0.40;;;3.70;99.90;;;;;;5055676;28;20281;-78
2023/02/25 04:45:39;;;;;;;0.52;0.50;;;3.70;99.90;;;;;;5057058;28;20286;-77
2023/02/25 04:48:06;;;;;;;5.03;0.68;;;3.70;99.90;;;;;;5057504;28;20249;-78
2023/02/25 04:50:33;;;;;;;0.50;0.40;;;3.70;99.90;;;;;;5057648;28;20278;-77
2023/02/25 04:53:01;;;;;;;0.50;0.40;;;3.70;99.90;;;;;;5057572;28;20213;-78
2023/02/25 04:55:28;;;;;;;0.50;0.40;;;3.60;99.90;;;;;;5057446;28;20195;-77
2023/02/25 04:57:57;;;;;;;0.50;0.40;;;3.70;99.90;;;;;;5056481;28;20273;-78
2023/02/25 05:00:26;;;;;;;1.05;0.75;;;3.70;99.90;;;;;;5048394;28;20197;-78
2023/02/25 05:02:53;;;;;;;0.95;0.95;;;3.70;99.90;;;;;;5056523;28;20199;-76
2023/02/25 05:05:20;;;;;;;0.60;0.40;;;3.70;99.90;;;;;;5055216;28;20218;-78
2023/02/25 05:07:48;;;;;;;0.50;0.50;;;3.70;99.90;;;;;;5054851;28;20293;-77
2023/02/25 05:10:15;;;;;;;0.73;0.73;;;3.70;99.90;;;;;;5057395;28;20198;-77
2023/02/25 05:12:42;;;;;;;0.75;0.75;;;3.70;99.90;;;;;;5057035;28;20277;-78
2023/02/25 05:15:11;;;;;;;0.50;0.40;;;3.70;99.90;;;;;;5056558;28;20223;-77
2023/02/25 05:17:38;;;;;;;0.50;0.40;;;3.70;99.90;;;;;;5057187;28;20658;-78
2023/02/25 05:20:10;;;;;;;0.50;0.40;;;3.70;99.90;;;;;;5056659;28;20201;-77
2023/02/25 05:22:37;;;;;;;0.50;0.40;;;3.70;99.90;;;;;;5057143;28;20574;-77
2023/02/25 05:25:05;;;;;;;0.50;0.40;;;3.70;99.90;;;;;;5056906;28;20725;-78
2023/02/25 05:27:33;;;;;;;0.50;0.40;;;3.70;99.90;;;;;;5057304;28;20218;-78
2023/02/25 05:30:00;;;;;;;7.22;0.70;;;3.70;99.90;;;;;;5057930;28;20215;-78
2023/02/25 05:32:30;;;;;;;2.25;0.85;;;3.70;99.90;;;;;;5057847;28;20570;-78
2023/02/25 05:34:57;;;;;;;0.60;0.60;;;3.70;99.90;;;;;;5058091;28;20213;-74
2023/02/25 05:37:24;;;;;;;0.75;0.75;;;3.60;99.90;;;;;;5057182;28;20187;-76
2023/02/25 05:39:51;;;;;;;0.50;0.40;;;3.60;99.90;;;;;;5057233;28;20195;-77
2023/02/25 05:42:18;;;;;;;0.50;0.40;;;3.60;99.90;;;;;;5057734;28;20285;-78
2023/02/25 05:44:45;;;;;;;0.50;0.40;;;3.60;99.90;;;;;;5061804;28;20225;-78
2023/02/25 05:47:13;;;;;;;0.50;0.40;;;3.60;99.90;;;;;;5061568;28;20573;-78
2023/02/25 05:49:42;;;;;;;0.50;0.40;;;3.60;99.90;;;;;;5062051;28;20217;-79
2023/02/25 05:52:10;;;;;;;2.65;0.93;;;3.70;99.90;;;;;;5061553;28;20198;-79
2023/02/25 05:54:37;;;;;;;0.50;0.40;;;3.70;99.90;;;;;;5061890;28;20696;-79
2023/02/25 05:57:04;;;;;;;1.15;0.95;;;3.70;99.90;;;;;;5061077;28;20628;-78
2023/02/25 05:59:31;;;;;;;0.50;0.40;;;3.70;99.90;;;;;;5061671;28;20273;-78
2023/02/25 06:01:58;;;;;;;0.50;0.40;;;3.70;99.90;;;;;;5059862;28;20299;-78
2023/02/25 06:04:24;;;;;;;0.50;0.40;;;3.70;99.90;;;;;;5060324;28;20642;-78
2023/02/25 06:06:53;;;;;;;0.50;0.40;;;3.80;99.90;;;;;;5058890;28;20278;-78
2023/02/25 06:09:20;;;;;;;0.60;0.40;;;3.80;99.90;;;;;;5060251;28;20632;-78
2023/02/25 06:11:48;;;;;;;0.50;0.50;;;3.80;99.90;;;;;;5061031;28;20206;-78
2023/02/25 06:14:16;;;;;;;1.83;1.05;;;3.80;99.90;;;;;;5060756;28;20218;-77
2023/02/25 06:16:43;;;;;;;0.50;0.40;;;3.80;99.90;;;;;;5059493;28;20277;-77
2023/02/25 06:19:11;;;;;;;0.50;0.40;;;3.80;99.90;;;;;;5060993;28;20195;-78
2023/02/25 06:21:38;;;;;;;1.95;0.98;;;3.80;99.90;;;;;;5059184;28;20290;-77
2023/02/25 06:24:07;;;;;;;0.60;0.50;;;3.70;99.90;;;;;;5061256;28;20246;-79
2023/02/25 06:26:40;;;;;;;0.57;0.57;;;3.70;99.90;;;;;;5061787;28;20203;-78
2023/02/25 06:29:08;;;;;;;3.13;0.90;;;3.70;99.90;;;;;;5060175;28;20322;-79
2023/02/25 06:31:35;;;;;;;0.50;0.40;;;3.70;99.90;;;;;;5061163;28;20193;-79
2023/02/25 06:34:02;;;;;;;0.50;0.40;;;3.70;99.90;;;;;;5060545;28;20685;-79
2023/02/25 06:36:28;;;;;;;0.50;0.40;;;3.70;99.90;;;;;;5061778;28;20273;-78
2023/02/25 06:38:55;;;;;;;0.50;0.40;;;3.70;99.90;;;;;;5061264;28;20194;-79
2023/02/25 06:41:24;;;;;;;0.50;0.40;;;3.70;99.90;;;;;;5062391;28;20282;-80
2023/02/25 06:43:51;;;;;;;0.50;0.40;;;3.70;99.90;;;;;;5060211;28;20217;-79
2023/02/25 06:46:20;;;;;;;0.85;0.85;;;3.80;99.90;;;;;;5060610;28;20211;-78
2023/02/25 06:48:47;;;;;;;0.50;0.40;;;3.80;99.90;;;;;;5061651;28;20242;-78
2023/02/25 06:51:14;;;;;;;0.50;0.40;;;3.80;99.90;;;;;;5062045;28;20254;-79
2023/02/25 06:53:43;;;;;;;0.85;0.80;;;3.90;99.90;;;;;;5062689;28;20253;-79
2023/02/25 06:56:12;;;;;;;11.15;0.82;;;3.90;99.90;;;;;;5062859;28;20186;-78
2023/02/25 06:58:41;;;;;;;0.50;0.50;;;3.90;99.90;;;;;;5061411;28;20331;-80
2023/02/25 07:01:09;;;;;;;0.50;0.50;;;3.90;99.90;;;;;;5061562;28;20226;-78
2023/02/25 07:03:36;;;;;;;0.50;0.40;;;3.90;99.90;;;;;;5061297;28;20214;-79
2023/02/25 07:06:03;;;;;;;0.50;0.40;;;4.00;99.90;;;;;;5060060;28;20230;-79
2023/02/25 07:08:30;;;;;;;0.50;0.40;;;4.00;99.90;;;;;;5060385;28;20270;-78
2023/02/25 07:11:10;;;;;;;15.77;0.85;;;4.10;99.90;;;;;;5060799;28;20571;-79
2023/02/25 07:13:37;;;;;;;0.50;0.40;;;4.20;99.90;;;;;;5060305;28;20206;-78
2023/02/25 07:16:05;;;;;;;0.60;0.60;;;4.20;99.90;;;;;;5060401;28;20199;-79
2023/02/25 07:18:32;;;;;;;0.50;0.40;;;4.30;99.90;;;;;;5052390;28;20650;-79
2023/02/25 07:20:59;;;;;;;5.47;1.05;;;4.50;99.90;;;;;;5061162;28;20206;-79
2023/02/25 07:23:26;;;;;;;0.50;0.40;;;4.50;99.90;;;;;;5059621;28;20250;-78
2023/02/25 07:25:53;;;;;;;0.50;0.40;;;4.50;99.90;;;;;;5060027;28;20297;-79
2023/02/25 07:28:20;;;;;;;0.50;0.50;;;4.50;99.90;;;;;;5059539;28;20480;-78
2023/02/25 07:30:47;;;;;;;0.50;0.40;;;4.40;99.90;;;;;;5061005;28;20203;-79
2023/02/25 07:33:15;;;;;;;0.50;0.50;;;4.40;99.90;;;;;;5058373;28;20722;-79
2023/02/25 07:35:42;;;;;;;0.50;0.40;;;4.30;99.90;;;;;;5058128;28;20226;-79
2023/02/25 07:38:11;;;;;;;0.50;0.50;;;4.30;99.90;;;;;;5060306;28;20199;-79
2023/02/25 07:40:40;;;;;;;0.80;0.50;;;4.20;99.90;;;;;;5058806;28;20190;-79
2023/02/25 07:43:06;;;;;;;0.65;0.60;;;4.30;99.90;;;;;;5059856;28;20201;-79
2023/02/25 07:45:33;;;;;;;0.50;0.40;;;4.30;99.90;;;;;;5050357;28;20201;-78
2023/02/25 07:48:00;;;;;;;3.72;0.60;;;4.30;99.90;;;;;;5062335;28;20198;-78
2023/02/25 07:50:28;;;;;;;0.50;0.40;;;4.30;99.90;;;;;;5059225;28;20649;-79
2023/02/25 07:52:55;;;;;;;0.50;0.40;;;4.40;99.90;;;;;;5058693;28;20198;-77
2023/02/25 07:55:22;;;;;;;0.50;0.40;;;4.40;99.90;;;;;;5059471;28;20195;-79
2023/02/25 07:57:49;;;;;;;0.50;0.40;;;4.40;99.90;;;;;;5056619;28;20286;-79
2023/02/25 08:00:16;;;;;;;0.50;0.40;;;4.50;99.90;;;;;;5059881;28;20191;-78
2023/02/25 08:02:44;;;;;;;0.50;0.40;;;4.60;99.90;;;;;;5056616;28;20193;-78
2023/02/25 08:05:11;;;;;;;0.70;0.60;;;4.50;99.90;;;;;;5055856;28;20338;-77
2023/02/25 08:07:39;;;;;;;0.50;0.40;;;4.60;99.90;;;;;;5054944;28;20217;-80
2023/02/25 08:10:07;;;;;;;0.50;0.40;;;4.50;99.90;;;;;;5055645;28;20253;-79
2023/02/25 08:12:34;;;;;;;2.67;0.93;;;4.40;99.90;;;;;;5047821;28;20299;-80
2023/02/25 08:15:01;;;;;;;0.50;0.40;;;4.30;99.90;;;;;;5054707;28;20310;-80
2023/02/25 08:17:31;;;;;;;0.50;0.40;;;4.30;99.90;;;;;;5054721;28;20258;-79
2023/02/25 08:19:58;;;;;;;0.50;0.45;;;4.30;99.90;;;;;;5056133;28;20198;-80
2023/02/25 08:22:24;;;;;;;0.50;0.40;;;4.30;99.90;;;;;;5055380;28;20634;-79
2023/02/25 08:24:53;;;;;;;4.72;1.08;;;4.40;99.90;;;;;;5056207;28;20242;-79
2023/02/25 08:27:20;;;;;;;0.50;0.40;;;4.40;99.90;;;;;;5058468;28;20226;-80
2023/02/25 08:29:46;;;;;;;1.20;1.02;;;4.40;99.90;;;;;;5059437;28;20214;-79
2023/02/25 08:32:13;;;;;;;0.50;0.40;;;4.50;99.90;;;;;;5058130;28;20191;-79
2023/02/25 08:34:40;;;;;;;1.45;0.95;;;4.50;99.90;;;;;;5058825;28;20218;-77
2023/02/25 08:37:10;;;;;;;1.35;1.25;;;4.70;99.90;;;;;;5058599;28;20281;-79
2023/02/25 08:39:36;;;;;;;0.50;0.40;;;4.90;99.90;;;;;;5058448;28;20190;-80
2023/02/25 08:42:05;;;;;;;0.50;0.40;;;5.10;99.90;;;;;;5059409;28;20204;-80
2023/02/25 08:44:32;;;;;;;0.50;0.40;;;5.90;99.90;;;;;;5059745;28;20297;-79
2023/02/25 08:46:58;;;;;;;0.50;0.40;;;7.30;99.90;;;;;;5063557;28;20191;-79
2023/02/25 08:49:25;;;;;;;0.50;0.40;;;8.80;99.90;;;;;;5061146;28;20297;-77
2023/02/25 08:51:52;;;;;;;0.50;0.40;;;9.20;99.90;;;;;;5063334;28;20191;-80
2023/02/25 08:54:19;;;;;;;0.50;0.40;;;9.30;99.90;;;;;;5064121;28;20210;-79
2023/02/25 08:56:46;;;;;;;0.60;0.50;;;9.10;99.90;;;;;;5063437;28;20281;-79
2023/02/25 08:59:16;;;;;;;0.50;0.40;;;9.50;99.90;;;;;;5064461;28;20203;-79
2023/02/25 09:01:47;;;;;;;0.50;0.40;;;10.20;99.90;;;;;;5074255;28;20190;-80
2023/02/25 09:04:14;;;;;;;0.50;0.40;;;10.30;99.90;;;;;;5073899;28;20225;-77
2023/02/25 09:06:41;;;;;;;0.50;0.40;;;10.00;99.90;;;;;;5070589;28;20655;-80
2023/02/25 09:09:10;;;;;;;1.17;1.13;;;9.60;99.90;;;;;;5071656;28;20214;-79
2023/02/25 09:11:37;;;;;;;0.50;0.40;;;8.90;99.90;;;;;;5073038;28;20198;-79
2023/02/25 09:14:04;;;;;;;0.50;0.40;;;8.40;99.90;;;;;;5069476;28;20729;-80
2023/02/25 09:16:32;;;;;;;0.50;0.40;;;8.10;99.90;;;;;;5069185;28;20226;-81
2023/02/25 09:18:59;;;;;;;0.50;0.40;;;7.90;99.90;;;;;;5069714;28;20221;-79
2023/02/25 09:21:26;;;;;;;0.50;0.40;;;7.80;99.90;;;;;;5070162;28;20705;-79
2023/02/25 09:23:53;;;;;;;0.50;0.40;;;7.70;99.90;;;;;;5068536;28;20246;-79
2023/02/25 09:28:50;;;;;;;0.50;0.40;;;7.40;99.90;;;;;;5081760;28;20214;-79
2023/02/25 09:31:18;;;;;;;0.50;0.40;;;7.10;99.90;;;;;;5087463;28;20198;-79
2023/02/25 09:33:46;;;;;;;2.15;1.85;;;6.70;99.90;;;;;;5088103;28;20857;-78
2023/02/25 09:36:15;;;;;;;0.50;0.40;;;6.30;99.90;;;;;;5080905;28;20257;-79
2023/02/25 09:38:44;;;;;;;0.63;0.63;;;6.10;99.90;;;;;;5071189;28;20203;-79
2023/02/25 09:41:24;;;;;;;0.50;0.40;;;5.90;99.90;;;;;;5070120;28;20277;-77
2023/02/25 09:44:02;;;;;;;0.50;0.50;;;5.70;99.90;;;;;;5063572;28;20197;-79
2023/02/25 09:46:30;;;;;;;0.50;0.40;;;5.50;99.90;;;;;;5068715;28;20218;-77
2023/02/25 09:49:03;;;;;;;2.00;0.82;;;5.40;99.90;;;;;;5071011;28;20221;-78
2023/02/25 09:51:37;;;;;;;0.50;0.40;;;5.20;99.90;;;;;;5068005;28;20230;-78
2023/02/25 09:54:13;;;;;;;0.50;0.40;;;5.10;99.90;;;;;;5064254;28;20200;-78
2023/02/25 09:56:40;;;;;;;0.50;0.40;;;5.00;99.90;;;;;;5065901;28;20288;-78
2023/02/25 09:59:14;;;;;;;0.50;0.50;;;4.90;99.90;;;;;;5084052;28;20255;-76
2023/02/25 10:01:45;;;;;;;0.50;0.40;;;4.80;99.90;;;;;;5054108;28;20662;-78
2023/02/25 10:04:23;;;;;;;0.50;0.40;;;4.70;99.90;;;;;;5071937;28;20204;-78
2023/02/25 10:06:54;;;;;;;2.17;2.08;;;4.70;99.90;;;;;;5057595;28;20206;-79
2023/02/25 10:09:29;;;;;;;0.50;0.40;;;4.60;99.90;;;;;;5073409;28;20244;-79
2023/02/25 10:12:06;;;;;;;0.50;0.40;;;4.50;99.90;;;;;;5064537;28;20613;-78
2023/02/25 10:14:59;;;;;;;0.50;0.45;;;4.60;99.90;;;;;;5064586;28;20206;-79
2023/02/25 10:17:36;;;;;;;0.50;0.40;;;4.70;99.90;;;;;;5065075;28;20672;-79
2023/02/25 10:20:25;;;;;;;0.50;0.40;;;4.80;99.90;;;;;;5064541;28;20209;-78
2023/02/25 10:23:00;;;;;;;0.50;0.40;;;4.90;99.90;;;;;;5066589;28;20365;-79
2023/02/25 10:25:31;;;;;;;0.50;0.40;;;4.90;99.90;;;;;;5075235;28;20566;-78
2023/02/25 10:28:00;;;;;;;0.50;0.40;;;5.20;99.90;;;;;;5082003;28;20201;-78
2023/02/25 10:30:32;;;;;;;0.50;0.40;;;5.40;99.90;;;;;;5078137;28;20664;-79
2023/02/25 10:33:04;;;;;;;0.50;0.40;;;5.90;99.90;;;;;;5071144;28;20273;-79
2023/02/25 10:35:38;;;;;;;0.50;0.40;;;6.60;99.90;;;;;;5070395;28;20215;-79
2023/02/25 10:38:05;;;;;;;1.25;1.15;;;7.10;99.90;;;;;;5070693;28;20225;-76
2023/02/25 10:40:32;;;;;;;0.50;0.40;;;7.60;99.90;;;;;;5070711;28;20590;-79
2023/02/25 10:43:01;;;;;;;0.50;0.40;;;8.00;99.90;;;;;;5070074;28;20259;-80
2023/02/25 10:45:30;;;;;;;0.50;0.40;;;8.50;99.90;;;;;;5066825;28;20274;-79
2023/02/25 10:48:06;;;;;;;0.50;0.40;;;9.30;99.90;;;;;;5069229;28;20237;-79
2023/02/25 10:50:34;;;;;;;5.57;0.70;;;9.90;99.90;;;;;;5067686;28;20203;-79
2023/02/25 10:53:03;;;;;;;0.50;0.50;;;10.30;99.90;;;;;;5069867;28;20199;-79
2023/02/25 10:55:50;;;;;;;0.50;0.40;;;10.40;99.90;;;;;;5064568;28;20268;-79
2023/02/25 10:58:32;;;;;;;2.67;1.23;;;10.60;99.90;;;;;;5065480;28;20195;-79
2023/02/25 11:01:03;;;;;;;0.52;0.50;;;10.10;99.90;;;;;;5045565;28;20532;-79
2023/02/25 11:03:32;;;;;;;0.50;0.40;;;10.60;99.90;;;;;;5069088;28;20202;-78
2023/02/25 11:06:19;;;;;;;0.50;0.50;;;11.20;99.90;;;;;;5066044;28;20491;-80
2023/02/25 11:08:46;;;;;;;1.93;0.77;;;12.40;99.90;;;;;;5056767;28;20460;-79
2023/02/25 11:11:19;;;;;;;10.67;1.03;;;12.80;99.90;;;;;;5063959;28;20493;-78
2023/02/25 11:13:58;;;;;;;0.87;0.87;;;12.40;99.90;;;;;;5072874;28;20437;-79
2023/02/25 11:16:26;;;;;;;0.70;0.70;;;11.70;99.90;;;;;;5072415;28;20966;-79
2023/02/25 11:18:58;;;;;;;0.50;0.40;;;11.20;99.90;;;;;;5072419;28;20463;-79
2023/02/25 11:21:33;;;;;;;0.50;0.40;;;10.80;99.90;;;;;;5065861;28;20187;-79
2023/02/25 11:24:02;;;;;;;0.50;0.50;;;10.30;99.90;;;;;;5079177;28;20208;-79
2023/02/25 11:26:32;;;;;;;0.50;0.40;;;9.40;99.90;;;;;;5064313;28;20732;-78
2023/02/25 11:29:01;;;;;;;0.98;0.85;;;8.80;99.90;;;;;;5084102;28;20280;-79
2023/02/25 11:31:34;;;;;;;1.88;0.88;;;9.60;99.90;;;;;;5084304;28;20267;-78
2023/02/25 11:34:05;;;;;;;0.50;0.40;;;10.70;99.90;;;;;;5075680;28;20609;-81
2023/02/25 11:36:36;;;;;;;0.50;0.40;;;11.50;99.90;;;;;;5058889;28;20218;-78
2023/02/25 11:39:13;;;;;;;0.50;0.40;;;12.40;99.90;;;;;;5063068;28;20438;-78
2023/02/25 11:41:42;;;;;;;0.50;0.40;;;13.50;99.90;;;;;;5058813;28;20433;-79
2023/02/25 11:44:28;;;;;;;0.50;0.40;;;14.20;98.60;;;;;;5067150;28;20451;-78
2023/02/25 11:47:04;;;;;;;0.50;0.43;;;14.20;94.20;;;;;;5067359;28;20552;-78
2023/02/25 11:50:03;;;;;;;0.50;0.40;;;13.60;94.00;;;;;;5061206;28;20461;-79
2023/02/25 11:52:38;;;;;;;0.50;0.40;;;11.60;96.80;;;;;;5060327;28;20482;-77
2023/02/25 11:55:16;;;;;;;0.50;0.40;;;9.70;99.90;;;;;;5061421;28;20230;-78
2023/02/25 11:57:50;;;;;;;0.50;0.40;;;8.10;99.90;;;;;;5064960;28;20193;-78
2023/02/25 12:00:24;;;;;;;1.20;0.75;;;7.10;99.90;;;;;;5082960;28;20185;-78
2023/02/25 12:03:11;;;;;;;0.50;0.40;;;6.80;99.90;;;;;;5071071;28;20590;-78
2023/02/25 12:05:52;;;;;;;0.50;0.40;;;6.30;99.90;;;;;;5061644;28;20219;-77
2023/02/25 12:08:42;;;;;;;0.63;0.63;;;5.90;99.90;;;;;;5068658;28;20191;-79
2023/02/25 12:11:37;;;;;;;0.50;0.50;;;5.80;99.90;;;;;;5082176;28;20214;-76
2023/02/25 12:14:57;;;;;;;0.50;0.50;;;5.70;99.90;;;;;;5082026;28;20264;-78
2023/02/25 12:17:57;;;;;;;0.50;0.40;;;6.00;99.90;;;;;;5071904;28;20271;-78
2023/02/25 12:20:57;;;;;;;0.80;0.80;;;7.20;99.90;;;;;;5068698;28;20217;-77
2023/02/25 12:23:54;;;;;;;0.50;0.40;;;8.00;99.90;;;;;;5061047;28;20202;-78
2023/02/25 12:26:31;;;;;;;1.50;1.40;;;8.90;99.90;;;;;;5059629;28;20215;-77
2023/02/25 12:29:32;;;;;;;0.50;0.40;;;10.20;99.90;;;;;;5045369;28;20179;-79
2023/02/25 12:32:14;;;;;;;0.60;0.60;;;10.90;99.90;;;;;;5065887;28;20826;-79
2023/02/25 12:35:16;;;;;;;0.80;0.50;;;11.50;99.90;;;;;;5059785;28;20187;-79
2023/02/25 12:38:25;;;;;;;0.50;0.40;;;11.30;99.90;;;;;;5064902;28;20471;-77
2023/02/25 12:41:13;;;;;;;0.50;0.40;;;10.60;97.50;;;;;;5050911;28;20240;-78
2023/02/25 12:43:49;;;;;;;0.50;0.40;;;9.60;98.70;;;;;;5059849;28;20183;-78
2023/02/25 12:46:31;;;;;;;0.50;0.40;;;8.90;97.30;;;;;;5060329;28;20210;-78
2023/02/25 12:49:25;;;;;;;0.50;0.40;;;8.60;99.20;;;;;;5053528;28;20557;-78
2023/02/25 12:52:14;;;;;;;0.50;0.50;;;8.40;99.90;;;;;;5065705;28;20560;-78
2023/02/25 12:55:07;;;;;;;0.50;0.40;;;9.10;99.90;;;;;;5071330;28;20669;-78
2023/02/25 12:57:48;;;;;;;0.50;0.40;;;9.40;97.10;;;;;;5061074;28;20183;-80
2023/02/25 13:00:49;;;;;;;0.50;0.40;;;9.90;96.60;;;;;;5071865;28;20456;-79
2023/02/25 13:03:27;;;;;;;0.50;0.40;;;10.20;93.70;;;;;;5050394;28;20194;-78
2023/02/25 13:06:32;;;;;;;3.33;0.87;;;11.10;92.00;;;;;;5079442;28;20252;-78
2023/02/25 13:09:17;;;;;;;6.57;0.70;;;11.20;90.80;;;;;;5073128;28;20432;-79
2023/02/25 13:12:01;;;;;;;0.50;0.40;;;10.50;88.90;;;;;;5081482;28;20209;-78
2023/02/25 13:14:42;;;;;;;0.50;0.40;;;10.20;86.10;;;;;;5079868;28;20439;-78
2023/02/25 13:17:35;;;;;;;2.53;0.50;;;10.70;86.90;;;;;;5061361;28;20238;-78
2023/02/25 13:20:32;;;;;;;0.80;0.80;;;11.30;83.80;;;;;;5058884;28;20437;-78
2023/02/25 13:23:19;;;;;;;0.50;0.40;;;11.50;78.00;;;;;;5075091;28;20440;-77